$GPRMC,000000.000,V,5202.244,N,01636.264,E,0.00,0.00,010070,,*17 $GPGGA,000000.000,5202.244,N,01636.264,E,0,00,0.0,0.000,M,0.0,M,,*68 $GPRMC,000000.000,V,5202.238,N,01636.295,E,0.00,0.00,010070,,*12 $GPGGA,000000.000,5202.238,N,01636.295,E,0,00,0.0,0.000,M,0.0,M,,*6D $GPRMC,000000.000,V,5202.214,N,01636.324,E,0.00,0.00,010070,,*17 $GPGGA,000000.000,5202.214,N,01636.324,E,0,00,0.0,0.000,M,0.0,M,,*68 $GPRMC,000000.000,V,5202.150,N,01636.389,E,0.00,0.00,010070,,*13 $GPGGA,000000.000,5202.150,N,01636.389,E,0,00,0.0,0.000,M,0.0,M,,*6C $GPRMC,000000.000,V,5202.111,N,01636.427,E,0.00,0.00,010070,,*15 $GPGGA,000000.000,5202.111,N,01636.427,E,0,00,0.0,0.000,M,0.0,M,,*6A $GPRMC,000000.000,V,5202.076,N,01636.470,E,0.00,0.00,010070,,*17 $GPGGA,000000.000,5202.076,N,01636.470,E,0,00,0.0,0.000,M,0.0,M,,*68 $GPRMC,000000.000,V,5202.036,N,01636.507,E,0.00,0.00,010070,,*12 $GPGGA,000000.000,5202.036,N,01636.507,E,0,00,0.0,0.000,M,0.0,M,,*6D $GPRMC,000000.000,V,5202.004,N,01636.550,E,0.00,0.00,010070,,*11 $GPGGA,000000.000,5202.004,N,01636.550,E,0,00,0.0,0.000,M,0.0,M,,*6E $GPRMC,000000.000,V,5201.973,N,01636.579,E,0.00,0.00,010070,,*10 $GPGGA,000000.000,5201.973,N,01636.579,E,0,00,0.0,0.000,M,0.0,M,,*6F $GPRMC,000000.000,V,5201.952,N,01636.623,E,0.00,0.00,010070,,*1F $GPGGA,000000.000,5201.952,N,01636.623,E,0,00,0.0,0.000,M,0.0,M,,*60 $GPRMC,000000.000,V,5201.936,N,01636.657,E,0.00,0.00,010070,,*1E $GPGGA,000000.000,5201.936,N,01636.657,E,0,00,0.0,0.000,M,0.0,M,,*61 $GPRMC,000000.000,V,5201.920,N,01636.693,E,0.00,0.00,010070,,*11 $GPGGA,000000.000,5201.920,N,01636.693,E,0,00,0.0,0.000,M,0.0,M,,*6E $GPRMC,000000.000,V,5201.900,N,01636.713,E,0.00,0.00,010070,,*1A $GPGGA,000000.000,5201.900,N,01636.713,E,0,00,0.0,0.000,M,0.0,M,,*65 $GPRMC,000000.000,V,5201.880,N,01636.734,E,0.00,0.00,010070,,*16 $GPGGA,000000.000,5201.880,N,01636.734,E,0,00,0.0,0.000,M,0.0,M,,*69 $GPRMC,000000.000,V,5201.866,N,01636.815,E,0.00,0.00,010070,,*12 $GPGGA,000000.000,5201.866,N,01636.815,E,0,00,0.0,0.000,M,0.0,M,,*6D $GPRMC,000000.000,V,5201.848,N,01636.946,E,0.00,0.00,010070,,*19 $GPGGA,000000.000,5201.848,N,01636.946,E,0,00,0.0,0.000,M,0.0,M,,*66 $GPRMC,000000.000,V,5201.823,N,01637.072,E,0.00,0.00,010070,,*1B $GPGGA,000000.000,5201.823,N,01637.072,E,0,00,0.0,0.000,M,0.0,M,,*64 $GPRMC,000000.000,V,5201.797,N,01637.188,E,0.00,0.00,010070,,*1F $GPGGA,000000.000,5201.797,N,01637.188,E,0,00,0.0,0.000,M,0.0,M,,*60 $GPRMC,000000.000,V,5201.761,N,01637.300,E,0.00,0.00,010070,,*14 $GPGGA,000000.000,5201.761,N,01637.300,E,0,00,0.0,0.000,M,0.0,M,,*6B $GPRMC,000000.000,V,5201.722,N,01637.428,E,0.00,0.00,010070,,*1E $GPGGA,000000.000,5201.722,N,01637.428,E,0,00,0.0,0.000,M,0.0,M,,*61 $GPRMC,000000.000,V,5201.680,N,01637.563,E,0.00,0.00,010070,,*19 $GPGGA,000000.000,5201.680,N,01637.563,E,0,00,0.0,0.000,M,0.0,M,,*66 $GPRMC,000000.000,V,5201.611,N,01637.783,E,0.00,0.00,010070,,*1D $GPGGA,000000.000,5201.611,N,01637.783,E,0,00,0.0,0.000,M,0.0,M,,*62 $GPRMC,000000.000,V,5201.575,N,01637.898,E,0.00,0.00,010070,,*19 $GPGGA,000000.000,5201.575,N,01637.898,E,0,00,0.0,0.000,M,0.0,M,,*66 $GPRMC,000000.000,V,5201.540,N,01638.003,E,0.00,0.00,010070,,*1A $GPGGA,000000.000,5201.540,N,01638.003,E,0,00,0.0,0.000,M,0.0,M,,*65 $GPRMC,000000.000,V,5201.466,N,01638.229,E,0.00,0.00,010070,,*15 $GPGGA,000000.000,5201.466,N,01638.229,E,0,00,0.0,0.000,M,0.0,M,,*6A $GPRMC,000000.000,V,5201.412,N,01638.393,E,0.00,0.00,010070,,*16 $GPGGA,000000.000,5201.412,N,01638.393,E,0,00,0.0,0.000,M,0.0,M,,*69 $GPRMC,000000.000,V,5201.287,N,01638.759,E,0.00,0.00,010070,,*1E $GPGGA,000000.000,5201.287,N,01638.759,E,0,00,0.0,0.000,M,0.0,M,,*61 $GPRMC,000000.000,V,5201.217,N,01638.943,E,0.00,0.00,010070,,*12 $GPGGA,000000.000,5201.217,N,01638.943,E,0,00,0.0,0.000,M,0.0,M,,*6D $GPRMC,000000.000,V,5201.154,N,01639.112,E,0.00,0.00,010070,,*1B $GPGGA,000000.000,5201.154,N,01639.112,E,0,00,0.0,0.000,M,0.0,M,,*64 $GPRMC,000000.000,V,5201.104,N,01639.265,E,0.00,0.00,010070,,*1D $GPGGA,000000.000,5201.104,N,01639.265,E,0,00,0.0,0.000,M,0.0,M,,*62 $GPRMC,000000.000,V,5201.072,N,01639.365,E,0.00,0.00,010070,,*1C $GPGGA,000000.000,5201.072,N,01639.365,E,0,00,0.0,0.000,M,0.0,M,,*63 $GPRMC,000000.000,V,5201.017,N,01639.537,E,0.00,0.00,010070,,*1E $GPGGA,000000.000,5201.017,N,01639.537,E,0,00,0.0,0.000,M,0.0,M,,*61 $GPRMC,000000.000,V,5200.973,N,01639.679,E,0.00,0.00,010070,,*1D $GPGGA,000000.000,5200.973,N,01639.679,E,0,00,0.0,0.000,M,0.0,M,,*62 $GPRMC,000000.000,V,5200.956,N,01639.740,E,0.00,0.00,010070,,*11 $GPGGA,000000.000,5200.956,N,01639.740,E,0,00,0.0,0.000,M,0.0,M,,*6E $GPRMC,000000.000,V,5200.941,N,01639.835,E,0.00,0.00,010070,,*1A $GPGGA,000000.000,5200.941,N,01639.835,E,0,00,0.0,0.000,M,0.0,M,,*65 $GPRMC,000000.000,V,5200.932,N,01639.906,E,0.00,0.00,010070,,*1F $GPGGA,000000.000,5200.932,N,01639.906,E,0,00,0.0,0.000,M,0.0,M,,*60 $GPRMC,000000.000,V,5200.926,N,01639.999,E,0.00,0.00,010070,,*1C $GPGGA,000000.000,5200.926,N,01639.999,E,0,00,0.0,0.000,M,0.0,M,,*63 $GPRMC,000000.000,V,5200.921,N,01640.058,E,0.00,0.00,010070,,*11 $GPGGA,000000.000,5200.921,N,01640.058,E,0,00,0.0,0.000,M,0.0,M,,*6E $GPRMC,000000.000,V,5200.917,N,01640.109,E,0.00,0.00,010070,,*11 $GPGGA,000000.000,5200.917,N,01640.109,E,0,00,0.0,0.000,M,0.0,M,,*6E $GPRMC,000000.000,V,5200.912,N,01640.133,E,0.00,0.00,010070,,*1D $GPGGA,000000.000,5200.912,N,01640.133,E,0,00,0.0,0.000,M,0.0,M,,*62 $GPRMC,000000.000,V,5200.920,N,01640.185,E,0.00,0.00,010070,,*11 $GPGGA,000000.000,5200.920,N,01640.185,E,0,00,0.0,0.000,M,0.0,M,,*6E $GPRMC,000000.000,V,5200.929,N,01640.250,E,0.00,0.00,010070,,*13 $GPGGA,000000.000,5200.929,N,01640.250,E,0,00,0.0,0.000,M,0.0,M,,*6C $GPRMC,000000.000,V,5200.941,N,01640.323,E,0.00,0.00,010070,,*18 $GPGGA,000000.000,5200.941,N,01640.323,E,0,00,0.0,0.000,M,0.0,M,,*67 $GPRMC,000000.000,V,5200.949,N,01640.385,E,0.00,0.00,010070,,*1C $GPGGA,000000.000,5200.949,N,01640.385,E,0,00,0.0,0.000,M,0.0,M,,*63 $GPRMC,000000.000,V,5200.959,N,01640.442,E,0.00,0.00,010070,,*11 $GPGGA,000000.000,5200.959,N,01640.442,E,0,00,0.0,0.000,M,0.0,M,,*6E $GPRMC,000000.000,V,5200.967,N,01640.497,E,0.00,0.00,010070,,*14 $GPGGA,000000.000,5200.967,N,01640.497,E,0,00,0.0,0.000,M,0.0,M,,*6B $GPRMC,000000.000,V,5200.973,N,01640.551,E,0.00,0.00,010070,,*1A $GPGGA,000000.000,5200.973,N,01640.551,E,0,00,0.0,0.000,M,0.0,M,,*65 $GPRMC,000000.000,V,5200.983,N,01640.595,E,0.00,0.00,010070,,*1D $GPGGA,000000.000,5200.983,N,01640.595,E,0,00,0.0,0.000,M,0.0,M,,*62 $GPRMC,000000.000,V,5200.994,N,01640.618,E,0.00,0.00,010070,,*1D $GPGGA,000000.000,5200.994,N,01640.618,E,0,00,0.0,0.000,M,0.0,M,,*62 $GPRMC,000000.000,V,5201.009,N,01640.641,E,0.00,0.00,010070,,*1D $GPGGA,000000.000,5201.009,N,01640.641,E,0,00,0.0,0.000,M,0.0,M,,*62 $GPRMC,000000.000,V,5201.026,N,01640.655,E,0.00,0.00,010070,,*15 $GPGGA,000000.000,5201.026,N,01640.655,E,0,00,0.0,0.000,M,0.0,M,,*6A $GPRMC,000000.000,V,5201.038,N,01640.662,E,0.00,0.00,010070,,*1E $GPGGA,000000.000,5201.038,N,01640.662,E,0,00,0.0,0.000,M,0.0,M,,*61 $GPRMC,000000.000,V,5201.061,N,01640.666,E,0.00,0.00,010070,,*16 $GPGGA,000000.000,5201.061,N,01640.666,E,0,00,0.0,0.000,M,0.0,M,,*69 $GPRMC,000000.000,V,5201.077,N,01640.666,E,0.00,0.00,010070,,*11 $GPGGA,000000.000,5201.077,N,01640.666,E,0,00,0.0,0.000,M,0.0,M,,*6E $GPRMC,000000.000,V,5201.103,N,01640.664,E,0.00,0.00,010070,,*11 $GPGGA,000000.000,5201.103,N,01640.664,E,0,00,0.0,0.000,M,0.0,M,,*6E $GPRMC,000000.000,V,5201.128,N,01640.661,E,0.00,0.00,010070,,*1D $GPGGA,000000.000,5201.128,N,01640.661,E,0,00,0.0,0.000,M,0.0,M,,*62 $GPRMC,000000.000,V,5201.168,N,01640.650,E,0.00,0.00,010070,,*1B $GPGGA,000000.000,5201.168,N,01640.650,E,0,00,0.0,0.000,M,0.0,M,,*64 $GPRMC,000000.000,V,5201.209,N,01640.633,E,0.00,0.00,010070,,*1A $GPGGA,000000.000,5201.209,N,01640.633,E,0,00,0.0,0.000,M,0.0,M,,*65 $GPRMC,000000.000,V,5201.260,N,01640.613,E,0.00,0.00,010070,,*17 $GPGGA,000000.000,5201.260,N,01640.613,E,0,00,0.0,0.000,M,0.0,M,,*68 $GPRMC,000000.000,V,5201.313,N,01640.592,E,0.00,0.00,010070,,*18 $GPGGA,000000.000,5201.313,N,01640.592,E,0,00,0.0,0.000,M,0.0,M,,*67 $GPRMC,000000.000,V,5201.347,N,01640.576,E,0.00,0.00,010070,,*13 $GPGGA,000000.000,5201.347,N,01640.576,E,0,00,0.0,0.000,M,0.0,M,,*6C $GPRMC,000000.000,V,5201.376,N,01640.568,E,0.00,0.00,010070,,*1E $GPGGA,000000.000,5201.376,N,01640.568,E,0,00,0.0,0.000,M,0.0,M,,*61 $GPRMC,000000.000,V,5201.407,N,01640.567,E,0.00,0.00,010070,,*10 $GPGGA,000000.000,5201.407,N,01640.567,E,0,00,0.0,0.000,M,0.0,M,,*6F $GPRMC,000000.000,V,5201.431,N,01640.578,E,0.00,0.00,010070,,*1B $GPGGA,000000.000,5201.431,N,01640.578,E,0,00,0.0,0.000,M,0.0,M,,*64 $GPRMC,000000.000,V,5201.447,N,01640.599,E,0.00,0.00,010070,,*15 $GPGGA,000000.000,5201.447,N,01640.599,E,0,00,0.0,0.000,M,0.0,M,,*6A $GPRMC,000000.000,V,5201.459,N,01640.622,E,0.00,0.00,010070,,*19 $GPGGA,000000.000,5201.459,N,01640.622,E,0,00,0.0,0.000,M,0.0,M,,*66 $GPRMC,000000.000,V,5201.469,N,01640.658,E,0.00,0.00,010070,,*17 $GPGGA,000000.000,5201.469,N,01640.658,E,0,00,0.0,0.000,M,0.0,M,,*68 $GPRMC,000000.000,V,5201.484,N,01640.716,E,0.00,0.00,010070,,*1F $GPGGA,000000.000,5201.484,N,01640.716,E,0,00,0.0,0.000,M,0.0,M,,*60 $GPRMC,000000.000,V,5201.505,N,01640.811,E,0.00,0.00,010070,,*1F $GPGGA,000000.000,5201.505,N,01640.811,E,0,00,0.0,0.000,M,0.0,M,,*60 $GPRMC,000000.000,V,5201.524,N,01640.892,E,0.00,0.00,010070,,*17 $GPGGA,000000.000,5201.524,N,01640.892,E,0,00,0.0,0.000,M,0.0,M,,*68 $GPRMC,000000.000,V,5201.547,N,01640.970,E,0.00,0.00,010070,,*1F $GPGGA,000000.000,5201.547,N,01640.970,E,0,00,0.0,0.000,M,0.0,M,,*60 $GPRMC,000000.000,V,5201.576,N,01641.093,E,0.00,0.00,010070,,*18 $GPGGA,000000.000,5201.576,N,01641.093,E,0,00,0.0,0.000,M,0.0,M,,*67 $GPRMC,000000.000,V,5201.601,N,01641.186,E,0.00,0.00,010070,,*1E $GPGGA,000000.000,5201.601,N,01641.186,E,0,00,0.0,0.000,M,0.0,M,,*61 $GPRMC,000000.000,V,5201.611,N,01641.232,E,0.00,0.00,010070,,*13 $GPGGA,000000.000,5201.611,N,01641.232,E,0,00,0.0,0.000,M,0.0,M,,*6C $GPRMC,000000.000,V,5201.627,N,01641.293,E,0.00,0.00,010070,,*1D $GPGGA,000000.000,5201.627,N,01641.293,E,0,00,0.0,0.000,M,0.0,M,,*62 $GPRMC,000000.000,V,5201.643,N,01641.351,E,0.00,0.00,010070,,*10 $GPGGA,000000.000,5201.643,N,01641.351,E,0,00,0.0,0.000,M,0.0,M,,*6F $GPRMC,000000.000,V,5201.657,N,01641.394,E,0.00,0.00,010070,,*1C $GPGGA,000000.000,5201.657,N,01641.394,E,0,00,0.0,0.000,M,0.0,M,,*63 $GPRMC,000000.000,V,5201.663,N,01641.429,E,0.00,0.00,010070,,*1A $GPGGA,000000.000,5201.663,N,01641.429,E,0,00,0.0,0.000,M,0.0,M,,*65 $GPRMC,000000.000,V,5201.669,N,01641.457,E,0.00,0.00,010070,,*19 $GPGGA,000000.000,5201.669,N,01641.457,E,0,00,0.0,0.000,M,0.0,M,,*66 $GPRMC,000000.000,V,5201.686,N,01641.494,E,0.00,0.00,010070,,*17 $GPGGA,000000.000,5201.686,N,01641.494,E,0,00,0.0,0.000,M,0.0,M,,*68 $GPRMC,000000.000,V,5201.710,N,01641.535,E,0.00,0.00,010070,,*13 $GPGGA,000000.000,5201.710,N,01641.535,E,0,00,0.0,0.000,M,0.0,M,,*6C $GPRMC,000000.000,V,5201.733,N,01641.580,E,0.00,0.00,010070,,*1C $GPGGA,000000.000,5201.733,N,01641.580,E,0,00,0.0,0.000,M,0.0,M,,*63 $GPRMC,000000.000,V,5201.749,N,01641.609,E,0.00,0.00,010070,,*13 $GPGGA,000000.000,5201.749,N,01641.609,E,0,00,0.0,0.000,M,0.0,M,,*6C $GPRMC,000000.000,V,5201.734,N,01641.626,E,0.00,0.00,010070,,*14 $GPGGA,000000.000,5201.734,N,01641.626,E,0,00,0.0,0.000,M,0.0,M,,*6B $GPRMC,000000.000,V,5201.715,N,01641.653,E,0.00,0.00,010070,,*15 $GPGGA,000000.000,5201.715,N,01641.653,E,0,00,0.0,0.000,M,0.0,M,,*6A $GPRMC,000000.000,V,5201.642,N,01641.751,E,0.00,0.00,010070,,*15 $GPGGA,000000.000,5201.642,N,01641.751,E,0,00,0.0,0.000,M,0.0,M,,*6A $GPRMC,000000.000,V,5201.591,N,01641.819,E,0.00,0.00,010070,,*1B $GPGGA,000000.000,5201.591,N,01641.819,E,0,00,0.0,0.000,M,0.0,M,,*64 $GPRMC,000000.000,V,5201.509,N,01641.925,E,0.00,0.00,010070,,*14 $GPGGA,000000.000,5201.509,N,01641.925,E,0,00,0.0,0.000,M,0.0,M,,*6B $GPRMC,000000.000,V,5201.395,N,01642.081,E,0.00,0.00,010070,,*13 $GPGGA,000000.000,5201.395,N,01642.081,E,0,00,0.0,0.000,M,0.0,M,,*6C $GPRMC,000000.000,V,5201.316,N,01642.191,E,0.00,0.00,010070,,*18 $GPGGA,000000.000,5201.316,N,01642.191,E,0,00,0.0,0.000,M,0.0,M,,*67 $GPRMC,000000.000,V,5201.423,N,01642.321,E,0.00,0.00,010070,,*10 $GPGGA,000000.000,5201.423,N,01642.321,E,0,00,0.0,0.000,M,0.0,M,,*6F $GPRMC,000000.000,V,5201.484,N,01642.396,E,0.00,0.00,010070,,*11 $GPGGA,000000.000,5201.484,N,01642.396,E,0,00,0.0,0.000,M,0.0,M,,*6E $GPRMC,000000.000,V,5201.547,N,01642.472,E,0.00,0.00,010070,,*12 $GPGGA,000000.000,5201.547,N,01642.472,E,0,00,0.0,0.000,M,0.0,M,,*6D $GPRMC,000000.000,V,5201.615,N,01642.558,E,0.00,0.00,010070,,*1F $GPGGA,000000.000,5201.615,N,01642.558,E,0,00,0.0,0.000,M,0.0,M,,*60 $GPRMC,000000.000,V,5201.689,N,01642.644,E,0.00,0.00,010070,,*14 $GPGGA,000000.000,5201.689,N,01642.644,E,0,00,0.0,0.000,M,0.0,M,,*6B $GPRMC,000000.000,V,5201.546,N,01642.666,E,0.00,0.00,010070,,*14 $GPGGA,000000.000,5201.546,N,01642.666,E,0,00,0.0,0.000,M,0.0,M,,*6B $GPRMC,000000.000,V,5201.464,N,01642.679,E,0.00,0.00,010070,,*1B $GPGGA,000000.000,5201.464,N,01642.679,E,0,00,0.0,0.000,M,0.0,M,,*64 $GPRMC,000000.000,V,5201.295,N,01642.705,E,0.00,0.00,010070,,*19 $GPGGA,000000.000,5201.295,N,01642.705,E,0,00,0.0,0.000,M,0.0,M,,*66 $GPRMC,000000.000,V,5201.213,N,01642.718,E,0.00,0.00,010070,,*1B $GPGGA,000000.000,5201.213,N,01642.718,E,0,00,0.0,0.000,M,0.0,M,,*64 $GPRMC,000000.000,V,5201.177,N,01642.726,E,0.00,0.00,010070,,*17 $GPGGA,000000.000,5201.177,N,01642.726,E,0,00,0.0,0.000,M,0.0,M,,*68 $GPRMC,000000.000,V,5201.127,N,01642.750,E,0.00,0.00,010070,,*13 $GPGGA,000000.000,5201.127,N,01642.750,E,0,00,0.0,0.000,M,0.0,M,,*6C $GPRMC,000000.000,V,5200.942,N,01642.857,E,0.00,0.00,010070,,*11 $GPGGA,000000.000,5200.942,N,01642.857,E,0,00,0.0,0.000,M,0.0,M,,*6E $GPRMC,000000.000,V,5200.872,N,01642.896,E,0.00,0.00,010070,,*1E $GPGGA,000000.000,5200.872,N,01642.896,E,0,00,0.0,0.000,M,0.0,M,,*61 $GPRMC,000000.000,V,5200.780,N,01642.943,E,0.00,0.00,010070,,*15 $GPGGA,000000.000,5200.780,N,01642.943,E,0,00,0.0,0.000,M,0.0,M,,*6A $GPRMC,000000.000,V,5200.682,N,01643.000,E,0.00,0.00,010070,,*19 $GPGGA,000000.000,5200.682,N,01643.000,E,0,00,0.0,0.000,M,0.0,M,,*66 $GPRMC,000000.000,V,5200.614,N,01643.037,E,0.00,0.00,010070,,*12 $GPGGA,000000.000,5200.614,N,01643.037,E,0,00,0.0,0.000,M,0.0,M,,*6D $GPRMC,000000.000,V,5200.555,N,01643.069,E,0.00,0.00,010070,,*1F $GPGGA,000000.000,5200.555,N,01643.069,E,0,00,0.0,0.000,M,0.0,M,,*60 $GPRMC,000000.000,V,5200.498,N,01643.107,E,0.00,0.00,010070,,*16 $GPGGA,000000.000,5200.498,N,01643.107,E,0,00,0.0,0.000,M,0.0,M,,*69 $GPRMC,000000.000,V,5200.461,N,01643.117,E,0.00,0.00,010070,,*11 $GPGGA,000000.000,5200.461,N,01643.117,E,0,00,0.0,0.000,M,0.0,M,,*6E $GPRMC,000000.000,V,5200.337,N,01643.135,E,0.00,0.00,010070,,*15 $GPGGA,000000.000,5200.337,N,01643.135,E,0,00,0.0,0.000,M,0.0,M,,*6A $GPRMC,000000.000,V,5200.184,N,01643.157,E,0.00,0.00,010070,,*1B $GPGGA,000000.000,5200.184,N,01643.157,E,0,00,0.0,0.000,M,0.0,M,,*64 $GPRMC,000000.000,V,5200.056,N,01643.176,E,0.00,0.00,010070,,*16 $GPGGA,000000.000,5200.056,N,01643.176,E,0,00,0.0,0.000,M,0.0,M,,*69 $GPRMC,000000.000,V,5159.962,N,01643.188,E,0.00,0.00,010070,,*16 $GPGGA,000000.000,5159.962,N,01643.188,E,0,00,0.0,0.000,M,0.0,M,,*69